Time;durP1;ratioP1;P1;durP2;ratioP2;P2;SDS_P1;SDS_P2;PMS_P1;PMS_P2;Temp;Humidity;BMP_temperature;BMP_pressure;BME280_temperature;BME280_humidity;BME280_pressure;Samples;Min_cycle;Max_cycle;Signal;HPM_P1;HPM_P2
2021/07/13 00:01:36;;;;;;;16.27;9.90;;;17.70;99.90;;;;;;5028733;28;20545;-85
2021/07/13 00:04:08;;;;;;;15.10;8.18;;;17.70;99.90;;;;;;5030088;28;20050;-87
2021/07/13 00:06:47;;;;;;;14.50;7.80;;;17.70;99.90;;;;;;5011078;28;20054;-84
2021/07/13 00:09:23;;;;;;;14.65;8.25;;;17.80;99.90;;;;;;5009702;28;20054;-86
2021/07/13 00:11:59;;;;;;;13.00;8.23;;;17.90;99.90;;;;;;5028561;28;20054;-86
2021/07/13 00:14:27;;;;;;;15.15;7.90;;;17.70;99.90;;;;;;4993552;28;20046;-84
2021/07/13 00:16:57;;;;;;;14.15;8.63;;;17.80;99.90;;;;;;5009940;28;20049;-83
2021/07/13 00:19:30;;;;;;;13.27;7.53;;;17.80;99.90;;;;;;5010666;28;20067;-83
2021/07/13 00:22:07;;;;;;;16.10;7.95;;;17.70;99.90;;;;;;5027471;28;20054;-86
2021/07/13 00:24:37;;;;;;;13.60;7.15;;;17.80;99.90;;;;;;4993946;28;20046;-83
2021/07/13 00:27:06;;;;;;;13.25;7.38;;;16.70;99.90;;;;;;5005963;28;20054;-86
2021/07/13 00:29:36;;;;;;;14.13;7.95;;;17.80;99.90;;;;;;5005476;28;20042;-83
2021/07/13 00:32:05;;;;;;;17.45;8.02;;;17.80;99.90;;;;;;4987275;28;20050;-85
2021/07/13 00:34:36;;;;;;;15.38;7.70;;;17.80;99.90;;;;;;5016779;28;20038;-87
2021/07/13 00:37:06;;;;;;;14.18;7.80;;;17.80;99.90;;;;;;5010562;28;20046;-87
2021/07/13 00:39:38;;;;;;;18.30;7.77;;;17.80;99.90;;;;;;5008958;28;20058;-84
2021/07/13 00:42:18;;;;;;;17.52;8.25;;;17.70;99.90;;;;;;4985345;28;20050;-87
2021/07/13 00:44:49;;;;;;;14.00;8.10;;;17.80;99.90;;;;;;5005155;28;20053;-84
2021/07/13 00:47:22;;;;;;;16.20;8.82;;;17.80;99.90;;;;;;4998344;28;20380;-83
2021/07/13 00:49:53;;;;;;;13.63;7.85;;;17.70;99.90;;;;;;4971733;28;20038;-83
2021/07/13 00:52:26;;;;;;;15.10;7.97;;;17.70;99.90;;;;;;4951836;28;20051;-83
2021/07/13 00:54:55;;;;;;;14.20;8.80;;;18.90;99.90;;;;;;4969254;28;20042;-87
2021/07/13 00:57:25;;;;;;;18.48;10.88;;;17.70;99.90;;;;;;4965067;28;20068;-87
2021/07/13 00:59:57;;;;;;;18.30;10.65;;;17.70;99.90;;;;;;5005052;28;20064;-87
2021/07/13 01:02:25;;;;;;;20.85;11.07;;;17.30;99.90;;;;;;5005186;28;20046;-83
2021/07/13 01:04:58;;;;;;;20.50;12.93;;;17.70;99.90;;;;;;4987689;28;20054;-88
2021/07/13 01:07:54;;;;;;;23.42;14.18;;;17.80;99.90;;;;;;4987632;28;20045;-86
2021/07/13 01:11:01;;;;;;;20.35;12.55;;;17.80;99.90;;;;;;4967767;28;20055;-87
2021/07/13 01:13:48;;;;;;;23.08;13.25;;;17.80;99.90;;;;;;4986765;28;20060;-85
2021/07/13 01:16:27;;;;;;;34.47;15.63;;;17.80;99.90;;;;;;4988570;28;20052;-83
2021/07/13 01:19:15;;;;;;;29.25;15.18;;;17.80;99.90;;;;;;4988207;28;20064;-83
2021/07/13 01:21:57;;;;;;;26.52;14.75;;;17.80;99.90;;;;;;5007521;28;20049;-85
2021/07/13 01:24:49;;;;;;;26.17;16.55;;;17.80;99.90;;;;;;5006819;28;20155;-84
2021/07/13 01:27:45;;;;;;;31.58;18.20;;;17.90;99.90;;;;;;4989399;28;20053;-83
2021/07/13 01:30:17;;;;;;;34.22;19.35;;;18.00;99.90;;;;;;4995246;28;20058;-87
2021/07/13 01:32:49;;;;;;;39.78;21.05;;;17.80;99.90;;;;;;4971944;28;20046;-83
2021/07/13 01:35:37;;;;;;;37.65;22.85;;;17.80;99.90;;;;;;4987984;28;20042;-83
2021/07/13 01:38:09;;;;;;;38.08;20.92;;;17.70;99.90;;;;;;4991279;28;20046;-82
2021/07/13 01:40:43;;;;;;;38.35;22.55;;;17.70;99.90;;;;;;4986898;28;20046;-84
2021/07/13 01:43:17;;;;;;;37.35;22.55;;;17.70;99.90;;;;;;5009536;28;20058;-88
2021/07/13 01:45:45;;;;;;;32.83;21.10;;;17.80;99.90;;;;;;4990386;28;20057;-85
2021/07/13 01:48:14;;;;;;;37.25;22.48;;;17.70;99.90;;;;;;4989353;28;20074;-88
2021/07/13 01:50:56;;;;;;;35.40;21.85;;;17.80;99.90;;;;;;4966643;28;20061;-86
2021/07/13 01:53:36;;;;;;;37.85;22.90;;;18.00;99.90;;;;;;5003142;28;20047;-85
2021/07/13 01:56:08;;;;;;;40.38;22.67;;;17.70;99.90;;;;;;4986342;28;20062;-86
2021/07/13 01:58:38;;;;;;;40.63;22.13;;;17.70;99.90;;;;;;4983732;28;20047;-83
2021/07/13 02:01:19;;;;;;;37.80;22.90;;;17.70;99.90;;;;;;4966103;28;20042;-82
2021/07/13 02:04:07;;;;;;;39.35;25.98;;;17.90;99.90;;;;;;5000384;28;20054;-86
2021/07/13 02:06:37;;;;;;;34.15;21.35;;;17.80;99.90;;;;;;4987976;28;20052;-83
2021/07/13 02:09:08;;;;;;;35.78;21.42;;;17.80;99.90;;;;;;4970367;28;20326;-83
2021/07/13 02:11:45;;;;;;;40.10;24.08;;;17.80;99.90;;;;;;4986641;28;20050;-83
2021/07/13 02:14:15;;;;;;;38.38;22.30;;;18.10;99.90;;;;;;5005028;28;20065;-87
2021/07/13 02:16:47;;;;;;;41.55;21.65;;;17.80;99.90;;;;;;5004781;28;20066;-85
2021/07/13 02:19:16;;;;;;;36.33;22.35;;;17.80;99.90;;;;;;4988645;28;20046;-84
2021/07/13 02:21:45;;;;;;;37.67;24.42;;;17.80;99.90;;;;;;4972425;28;20060;-84
2021/07/13 02:24:16;;;;;;;40.83;25.95;;;17.90;99.90;;;;;;4988673;28;20038;-87
2021/07/13 02:26:54;;;;;;;40.05;22.77;;;17.90;99.90;;;;;;4968747;28;20056;-86
2021/07/13 02:29:50;;;;;;;36.30;23.52;;;17.90;99.90;;;;;;5001433;28;20134;-84
2021/07/13 02:32:28;;;;;;;42.28;25.98;;;17.90;99.90;;;;;;4957547;28;20054;-84
2021/07/13 02:34:58;;;;;;;39.28;22.88;;;18.00;99.90;;;;;;5006542;28;20038;-82
2021/07/13 02:37:29;;;;;;;43.70;25.55;;;17.90;99.90;;;;;;4971590;28;20050;-83
2021/07/13 02:40:00;;;;;;;36.85;22.75;;;17.40;99.90;;;;;;4985094;28;20053;-86
2021/07/13 02:42:41;;;;;;;38.13;23.73;;;17.90;99.90;;;;;;4990406;28;20130;-84
2021/07/13 02:45:16;;;;;;;41.03;23.73;;;17.90;99.90;;;;;;4996625;28;20057;-84
2021/07/13 02:47:47;;;;;;;42.15;24.02;;;17.90;99.90;;;;;;5010266;28;20045;-84
2021/07/13 02:50:17;;;;;;;40.28;25.48;;;18.00;99.90;;;;;;4975343;28;20527;-87
2021/07/13 02:52:48;;;;;;;37.08;24.15;;;18.00;99.90;;;;;;5005628;28;20030;-84
2021/07/13 02:55:22;;;;;;;35.72;23.77;;;17.90;99.90;;;;;;4995549;28;20416;-84
2021/07/13 02:57:57;;;;;;;37.88;23.73;;;18.00;99.90;;;;;;5005955;28;20046;-84
2021/07/13 03:00:25;;;;;;;35.40;22.40;;;17.90;99.90;;;;;;4983625;28;20058;-85
2021/07/13 03:02:56;;;;;;;37.65;23.73;;;17.90;99.90;;;;;;5007856;28;20042;-85
2021/07/13 03:05:26;;;;;;;41.58;25.23;;;17.90;99.90;;;;;;4993855;28;20046;-87
2021/07/13 03:07:55;;;;;;;41.25;25.30;;;19.20;99.90;;;;;;4992491;28;20046;-87
2021/07/13 03:10:28;;;;;;;38.30;25.45;;;17.80;99.90;;;;;;5000553;28;20053;-84
2021/07/13 03:12:57;;;;;;;38.97;25.77;;;17.80;99.90;;;;;;4960999;28;20078;-85
2021/07/13 03:15:35;;;;;;;42.42;25.77;;;17.70;99.90;;;;;;4992653;28;20057;-82
2021/07/13 03:18:10;;;;;;;42.42;26.83;;;17.70;99.90;;;;;;4993300;28;20054;-86
2021/07/13 03:20:52;;;;;;;41.95;27.13;;;17.70;99.90;;;;;;5009761;28;20046;-88
2021/07/13 03:23:22;;;;;;;45.95;27.65;;;17.70;99.90;;;;;;4976875;28;20050;-86
2021/07/13 03:25:56;;;;;;;53.25;29.92;;;17.80;99.90;;;;;;4976778;28;20443;-84
2021/07/13 03:28:27;;;;;;;45.42;27.88;;;17.60;99.90;;;;;;5000999;28;20030;-83
2021/07/13 03:30:58;;;;;;;40.85;26.80;;;16.70;99.90;;;;;;4993595;28;20046;-84
2021/07/13 03:33:28;;;;;;;45.83;27.05;;;17.60;99.90;;;;;;5010395;28;20050;-83
2021/07/13 03:36:26;;;;;;;46.15;27.63;;;17.60;99.90;;;;;;5008430;28;20057;-83
2021/07/13 03:38:57;;;;;;;45.65;26.67;;;17.50;99.90;;;;;;4990811;28;20088;-86
2021/07/13 03:41:28;;;;;;;50.88;30.02;;;17.50;99.90;;;;;;4990020;28;20057;-86
2021/07/13 03:44:07;;;;;;;44.42;28.15;;;17.50;99.90;;;;;;5002513;28;20038;-85
2021/07/13 03:46:38;;;;;;;53.13;30.38;;;17.40;99.90;;;;;;4994724;28;20052;-84
2021/07/13 03:49:09;;;;;;;42.45;27.08;;;17.50;99.90;;;;;;5018787;28;20066;-83
2021/07/13 03:51:44;;;;;;;48.55;28.98;;;17.40;99.90;;;;;;4971508;28;20623;-83
2021/07/13 03:54:19;;;;;;;43.97;27.40;;;17.50;99.90;;;;;;4990842;28;20050;-85
2021/07/13 03:56:51;;;;;;;47.63;29.48;;;17.40;99.90;;;;;;4978341;28;20060;-84
2021/07/13 03:59:26;;;;;;;50.35;31.23;;;17.40;99.90;;;;;;4975675;28;20035;-87
2021/07/13 04:01:55;;;;;;;47.83;31.70;;;17.40;99.90;;;;;;4993808;28;20055;-86
2021/07/13 04:04:29;;;;;;;46.03;29.63;;;17.30;99.90;;;;;;4976181;28;20042;-84
2021/07/13 04:07:00;;;;;;;48.00;29.45;;;17.40;99.90;;;;;;4977201;28;20062;-84
2021/07/13 04:09:35;;;;;;;48.15;28.73;;;17.30;99.90;;;;;;4997020;28;20049;-83
2021/07/13 04:12:04;;;;;;;56.90;30.98;;;17.30;99.90;;;;;;4974707;28;20050;-86
2021/07/13 04:14:35;;;;;;;47.78;29.42;;;17.30;99.90;;;;;;4992323;28;20044;-86
2021/07/13 04:17:07;;;;;;;45.10;30.75;;;17.30;99.90;;;;;;4991456;28;20062;-86
2021/07/13 04:19:39;;;;;;;55.78;31.60;;;17.30;99.90;;;;;;4976798;28;20059;-84
2021/07/13 04:22:11;;;;;;;51.97;30.30;;;17.30;99.90;;;;;;4974425;28;20054;-84
2021/07/13 04:24:45;;;;;;;51.95;30.15;;;16.00;99.90;;;;;;4992384;28;20052;-86
2021/07/13 04:27:15;;;;;;;47.77;29.60;;;17.30;99.90;;;;;;5002581;28;20077;-86
2021/07/13 04:29:46;;;;;;;48.80;30.80;;;17.40;99.90;;;;;;4966455;28;20046;-86
2021/07/13 04:32:14;;;;;;;;;;;17.30;99.90;;;;;;4990424;28;20055;-87
2021/07/13 04:34:49;;;;;;;48.70;29.80;;;17.30;99.90;;;;;;4957330;28;19928;-87
2021/07/13 04:37:20;;;;;;;48.80;30.83;;;16.30;99.90;;;;;;4980011;28;20057;-83
2021/07/13 04:39:54;;;;;;;53.03;32.30;;;17.30;99.90;;;;;;4980351;28;20042;-84
2021/07/13 04:42:31;;;;;;;42.10;28.00;;;17.30;99.90;;;;;;4991546;28;20134;-84
2021/07/13 04:45:00;;;;;;;46.58;30.95;;;17.30;99.90;;;;;;5005572;28;20053;-85
2021/07/13 04:47:36;;;;;;;55.05;28.52;;;17.40;99.90;;;;;;4982080;28;20148;-86
2021/07/13 04:50:15;;;;;;;48.58;29.67;;;17.40;99.90;;;;;;5007204;28;20041;-84
2021/07/13 04:52:47;;;;;;;51.65;29.58;;;17.30;99.90;;;;;;5009720;28;20045;-84
2021/07/13 04:55:19;;;;;;;50.50;29.67;;;17.30;99.90;;;;;;4994456;28;20046;-86
2021/07/13 04:57:47;;;;;;;51.25;26.95;;;17.40;99.90;;;;;;5008569;28;20053;-85
2021/07/13 05:00:19;;;;;;;50.78;27.73;;;17.30;99.90;;;;;;5018937;28;20061;-87
2021/07/13 05:02:50;;;;;;;51.45;27.52;;;17.40;99.90;;;;;;5010589;28;20050;-87
2021/07/13 05:05:26;;;;;;;47.40;28.50;;;17.40;99.90;;;;;;4993820;28;20045;-88
2021/07/13 05:07:55;;;;;;;45.78;26.10;;;17.60;99.90;;;;;;5009160;28;20057;-82
2021/07/13 05:10:24;;;;;;;53.20;29.17;;;17.40;99.90;;;;;;5007679;28;20046;-83
2021/07/13 05:12:58;;;;;;;44.13;25.67;;;17.40;99.90;;;;;;4987894;28;20157;-87
2021/07/13 05:15:26;;;;;;;49.80;27.80;;;17.40;99.90;;;;;;4987837;28;20455;-83
2021/07/13 05:18:18;;;;;;;43.33;25.55;;;17.50;99.90;;;;;;4973671;28;20054;-84
2021/07/13 05:21:04;;;;;;;49.00;27.02;;;17.50;99.90;;;;;;4974642;28;20045;-84
2021/07/13 05:23:39;;;;;;;44.90;27.05;;;17.50;99.90;;;;;;5009526;28;20058;-88
2021/07/13 05:26:08;;;;;;;48.35;28.00;;;17.60;99.90;;;;;;5006184;28;20054;-84
2021/07/13 05:28:37;;;;;;;42.40;25.35;;;17.50;99.90;;;;;;5007579;28;20053;-84
2021/07/13 05:31:15;;;;;;;48.70;28.10;;;17.50;99.90;;;;;;5003905;28;20064;-85
2021/07/13 05:33:48;;;;;;;48.70;26.45;;;17.50;99.90;;;;;;4973128;28;20057;-83
2021/07/13 05:36:21;;;;;;;52.28;26.63;;;17.50;99.90;;;;;;5009741;28;20049;-84
2021/07/13 05:38:50;;;;;;;46.72;24.92;;;17.10;99.90;;;;;;4992653;28;20054;-85
2021/07/13 05:41:37;;;;;;;51.97;26.92;;;17.50;99.90;;;;;;5010205;28;20399;-85
2021/07/13 05:44:11;;;;;;;43.22;26.25;;;17.80;99.90;;;;;;5010553;28;20046;-86
2021/07/13 05:46:50;;;;;;;42.88;25.05;;;17.80;99.90;;;;;;5011830;28;20061;-84
2021/07/13 05:49:24;;;;;;;42.33;26.05;;;17.60;99.90;;;;;;4996683;28;20058;-82
2021/07/13 05:51:55;;;;;;;47.47;25.50;;;17.40;99.90;;;;;;5028871;28;20181;-83
2021/07/13 05:54:27;;;;;;;44.65;27.23;;;18.30;99.90;;;;;;5012714;28;20046;-85
2021/07/13 05:57:16;;;;;;;48.85;26.70;;;17.70;99.90;;;;;;4989341;28;20048;-85
2021/07/13 05:59:44;;;;;;;44.53;25.65;;;19.40;99.90;;;;;;4991891;28;20052;-83
2021/07/13 06:02:17;;;;;;;51.80;27.63;;;17.80;99.90;;;;;;5010480;28;20034;-87
2021/07/13 06:04:54;;;;;;;40.35;24.67;;;17.60;99.90;;;;;;4994014;28;20049;-86
2021/07/13 06:07:28;;;;;;;42.90;25.38;;;17.80;99.90;;;;;;4975614;28;20052;-84
2021/07/13 06:11:08;;;;;;;45.43;24.07;;;17.80;99.90;;;;;;4963551;28;20070;-84
2021/07/13 06:13:53;;;;;;;47.65;27.35;;;17.80;99.90;;;;;;4979214;28;20058;-83
2021/07/13 06:16:26;;;;;;;43.10;26.85;;;17.90;99.90;;;;;;4983392;28;20050;-88
2021/07/13 06:19:15;;;;;;;40.25;25.45;;;17.30;99.90;;;;;;4973628;28;20431;-83
2021/07/13 06:21:59;;;;;;;43.95;25.88;;;17.50;99.90;;;;;;4995914;28;20050;-85
2021/07/13 06:24:35;;;;;;;41.63;24.63;;;18.20;99.90;;;;;;4956508;28;20039;-86
2021/07/13 06:27:05;;;;;;;44.20;24.80;;;18.30;99.90;;;;;;4999174;28;20046;-84
2021/07/13 06:29:57;;;;;;;45.03;25.98;;;18.20;99.90;;;;;;4987008;28;20035;-85
2021/07/13 06:33:07;;;;;;;41.67;23.35;;;18.40;99.90;;;;;;4984652;28;20049;-84
2021/07/13 06:36:35;;;;;;;42.53;24.90;;;18.70;99.90;;;;;;5000038;28;20379;-86
2021/07/13 06:39:08;;;;;;;46.00;25.67;;;18.70;99.90;;;;;;4989128;28;20050;-80
2021/07/13 06:41:50;;;;;;;37.58;24.15;;;18.60;99.90;;;;;;5000801;28;20072;-87
2021/07/13 06:45:08;;;;;;;;;;;;;;;;;;;;;
2021/07/13 06:48:26;;;;;;;40.45;23.70;;;18.70;99.90;;;;;;5002592;28;20049;-83
2021/07/13 06:51:20;;;;;;;;;;;;;;;;;;;;;
2021/07/13 06:54:02;;;;;;;42.53;23.65;;;18.70;99.90;;;;;;5020352;28;20042;-87
2021/07/13 06:56:37;;;;;;;39.72;25.50;;;18.60;99.90;;;;;;5011490;28;20048;-83
2021/07/13 06:59:14;;;;;;;42.60;25.15;;;18.60;99.90;;;;;;5010362;28;21246;-86
2021/07/13 07:02:30;;;;;;;41.30;24.58;;;18.50;99.90;;;;;;4992241;28;20056;-87
2021/07/13 07:05:32;;;;;;;43.30;24.90;;;18.40;99.90;;;;;;5000611;28;20053;-84
2021/07/13 07:08:05;;;;;;;44.55;26.23;;;18.80;99.90;;;;;;5000732;28;20130;-86
2021/07/13 07:10:37;;;;;;;40.25;22.77;;;18.50;99.90;;;;;;5019738;28;20033;-85
2021/07/13 07:13:19;;;;;;;43.72;25.13;;;18.40;99.90;;;;;;5035570;28;20050;-86
2021/07/13 07:15:50;;;;;;;40.55;24.92;;;18.70;99.90;;;;;;5019660;28;20383;-85
2021/07/13 07:18:29;;;;;;;39.22;25.58;;;18.70;99.90;;;;;;4997880;28;20053;-85
2021/07/13 07:21:26;;;;;;;41.65;23.40;;;18.60;99.90;;;;;;4993335;28;20049;-85
2021/07/13 07:24:00;;;;;;;48.85;23.60;;;18.80;99.90;;;;;;5004037;28;20058;-85
2021/07/13 07:26:42;;;;;;;39.95;23.45;;;18.60;99.90;;;;;;4975260;28;20058;-84
2021/07/13 07:29:16;;;;;;;42.35;24.17;;;18.90;99.90;;;;;;4974620;28;20882;-85
2021/07/13 07:32:10;;;;;;;39.63;25.08;;;18.50;99.90;;;;;;5027937;28;20052;-84
2021/07/13 07:34:51;;;;;;;40.45;24.27;;;17.60;99.90;;;;;;5009249;28;20050;-84
2021/07/13 07:37:19;;;;;;;36.72;22.20;;;18.70;99.90;;;;;;4993416;28;20053;-85
2021/07/13 07:40:00;;;;;;;42.80;25.27;;;18.80;99.90;;;;;;4992520;28;20046;-85
2021/07/13 07:42:51;;;;;;;41.42;25.55;;;18.70;99.90;;;;;;4993299;28;20042;-84
2021/07/13 07:45:24;;;;;;;37.20;23.45;;;18.50;99.90;;;;;;4990562;28;20046;-84
2021/07/13 07:47:55;;;;;;;44.80;24.63;;;18.80;99.90;;;;;;5008005;28;20054;-85
2021/07/13 07:50:25;;;;;;;50.03;24.33;;;18.80;99.90;;;;;;5002811;28;20050;-85
2021/07/13 07:52:55;;;;;;;48.53;26.58;;;18.80;99.90;;;;;;4986784;28;20066;-85
2021/07/13 07:55:27;;;;;;;42.00;24.13;;;18.00;99.90;;;;;;5004779;28;20058;-85
2021/07/13 07:57:55;;;;;;;53.85;27.25;;;18.70;99.90;;;;;;4986767;28;20043;-86
2021/07/13 08:00:25;;;;;;;42.78;25.90;;;18.80;99.90;;;;;;5013851;28;20046;-85
2021/07/13 08:02:55;;;;;;;45.78;25.05;;;18.80;99.90;;;;;;4990412;28;20054;-85
2021/07/13 08:05:30;;;;;;;44.22;25.90;;;18.80;99.90;;;;;;5004745;28;20064;-86
2021/07/13 08:08:06;;;;;;;43.00;25.35;;;18.90;99.90;;;;;;5006689;28;20050;-85
2021/07/13 08:10:57;;;;;;;46.13;26.42;;;19.00;99.90;;;;;;5007131;28;20057;-83
2021/07/13 08:13:49;;;;;;;45.65;26.27;;;19.20;99.90;;;;;;5005250;28;20038;-85
2021/07/13 08:16:37;;;;;;;49.65;25.60;;;19.30;99.90;;;;;;5006595;28;20050;-84
2021/07/13 08:19:09;;;;;;;42.70;24.70;;;19.00;99.90;;;;;;5005838;28;20064;-84
2021/07/13 08:21:45;;;;;;;40.92;24.67;;;19.20;99.90;;;;;;5006480;28;20062;-85
2021/07/13 08:24:17;;;;;;;41.67;22.88;;;19.10;99.90;;;;;;4999464;28;20038;-85
2021/07/13 08:26:46;;;;;;;40.00;24.42;;;19.10;99.90;;;;;;4977409;28;20060;-85
2021/07/13 08:29:23;;;;;;;43.10;26.33;;;19.10;99.90;;;;;;4976502;28;20043;-85
2021/07/13 08:32:07;;;;;;;50.30;26.40;;;20.20;99.90;;;;;;4973093;28;20051;-85
2021/07/13 08:34:48;;;;;;;41.70;25.77;;;18.50;99.90;;;;;;4987584;28;20070;-85
2021/07/13 08:37:29;;;;;;;40.17;24.67;;;19.20;99.90;;;;;;4975768;28;20043;-84
2021/07/13 08:40:09;;;;;;;46.85;25.75;;;19.20;99.90;;;;;;4966666;28;20042;-85
2021/07/13 08:42:55;;;;;;;47.03;25.52;;;18.80;99.90;;;;;;4999073;28;20046;-84
2021/07/13 08:45:24;;;;;;;41.58;23.67;;;19.30;99.90;;;;;;5005206;28;20050;-85
2021/07/13 08:48:01;;;;;;;42.47;22.50;;;19.40;99.90;;;;;;5008402;28;20056;-86
2021/07/13 08:50:37;;;;;;;39.60;22.70;;;19.10;99.90;;;;;;5005722;28;20065;-85
2021/07/13 08:53:06;;;;;;;38.95;21.17;;;19.10;99.90;;;;;;5006280;28;20486;-84
2021/07/13 08:55:45;;;;;;;35.97;22.42;;;19.10;99.90;;;;;;5006039;28;20042;-85
2021/07/13 08:58:19;;;;;;;39.60;21.55;;;19.10;99.90;;;;;;5005936;28;20065;-83
2021/07/13 09:00:52;;;;;;;37.63;20.85;;;19.10;99.90;;;;;;4989000;28;20058;-85
2021/07/13 09:03:30;;;;;;;40.67;20.92;;;19.20;99.90;;;;;;4986369;28;20051;-85
2021/07/13 09:06:02;;;;;;;36.08;20.90;;;19.10;99.90;;;;;;4985434;28;20057;-84
2021/07/13 09:08:38;;;;;;;32.92;18.88;;;19.20;99.90;;;;;;4987945;28;20050;-85
2021/07/13 09:11:18;;;;;;;37.00;20.15;;;19.30;99.90;;;;;;4988527;28;20057;-85
2021/07/13 09:13:59;;;;;;;38.28;18.50;;;19.40;99.90;;;;;;4979621;28;20039;-86
2021/07/13 09:16:30;;;;;;;35.65;20.85;;;19.40;99.90;;;;;;5005336;28;20046;-85
2021/07/13 09:19:06;;;;;;;33.42;16.00;;;19.70;99.90;;;;;;5003970;28;20052;-84
2021/07/13 09:21:41;;;;;;;29.02;15.52;;;19.80;99.90;;;;;;4985784;28;20393;-85
2021/07/13 09:24:21;;;;;;;28.98;15.95;;;20.10;99.90;;;;;;4999583;28;20050;-86
2021/07/13 09:27:00;;;;;;;32.45;15.68;;;19.90;99.90;;;;;;5005283;28;20060;-84
2021/07/13 09:29:36;;;;;;;30.20;14.98;;;19.80;99.90;;;;;;5003647;28;20054;-85
2021/07/13 09:32:31;;;;;;;29.48;15.88;;;20.80;99.90;;;;;;5001192;28;20248;-84
2021/07/13 09:35:18;;;;;;;28.00;14.13;;;20.00;99.90;;;;;;4995997;28;20054;-84
2021/07/13 09:38:03;;;;;;;29.73;14.98;;;20.10;99.90;;;;;;4979463;28;20043;-84
2021/07/13 09:40:37;;;;;;;25.58;16.05;;;20.20;99.90;;;;;;4973461;28;20057;-85
2021/07/13 09:43:19;;;;;;;36.28;17.23;;;20.40;99.90;;;;;;5005839;28;20057;-84
2021/07/13 09:45:57;;;;;;;30.60;17.58;;;20.50;99.90;;;;;;4992110;28;20046;-84
2021/07/13 09:48:30;;;;;;;39.30;19.55;;;20.60;99.90;;;;;;5004434;28;20050;-85
2021/07/13 09:51:26;;;;;;;30.85;16.90;;;22.30;99.90;;;;;;5009851;28;20046;-85
2021/07/13 09:54:34;;;;;;;28.27;15.00;;;20.80;99.90;;;;;;5004628;28;20050;-85
2021/07/13 09:57:16;;;;;;;31.65;16.05;;;20.90;99.90;;;;;;4987347;28;20047;-85
2021/07/13 09:59:49;;;;;;;29.27;15.50;;;21.00;99.90;;;;;;4999981;28;20640;-85
2021/07/13 10:02:28;;;;;;;26.70;15.57;;;21.00;99.90;;;;;;4981272;28;20046;-84
2021/07/13 10:05:03;;;;;;;31.33;15.63;;;21.20;99.90;;;;;;5007080;28;20052;-85
2021/07/13 10:07:37;;;;;;;26.88;14.27;;;21.00;99.90;;;;;;4991159;28;20056;-85
2021/07/13 10:10:08;;;;;;;23.70;13.05;;;20.90;99.90;;;;;;5006664;28;20061;-85
2021/07/13 10:12:36;;;;;;;22.48;12.23;;;21.00;99.90;;;;;;5008830;28;20054;-84
2021/07/13 10:15:05;;;;;;;26.85;12.57;;;21.00;99.90;;;;;;4988712;28;20050;-85
2021/07/13 10:17:34;;;;;;;26.65;14.48;;;21.10;99.90;;;;;;4990869;28;20062;-84
2021/07/13 10:20:10;;;;;;;21.13;12.20;;;21.00;99.90;;;;;;5008351;28;20050;-85
2021/07/13 10:22:46;;;;;;;27.40;11.68;;;21.10;99.90;;;;;;5003972;28;20467;-83
2021/07/13 10:25:44;;;;;;;26.83;13.23;;;21.20;99.90;;;;;;4970244;28;20055;-84
2021/07/13 10:28:19;;;;;;;24.17;10.90;;;21.30;99.90;;;;;;5008609;28;20042;-85
2021/07/13 10:31:05;;;;;;;20.52;11.65;;;21.50;99.90;;;;;;5004941;28;20057;-85
2021/07/13 10:33:38;;;;;;;22.77;9.23;;;21.60;99.90;;;;;;5008001;28;20061;-85
2021/07/13 10:36:32;;;;;;;25.67;12.00;;;21.80;99.90;;;;;;4991727;28;20061;-85
2021/07/13 10:39:26;;;;;;;22.17;11.05;;;21.70;99.90;;;;;;5020270;28;20282;-85
2021/07/13 10:42:00;;;;;;;22.63;10.82;;;21.80;99.90;;;;;;5012521;28;20046;-86
2021/07/13 10:44:46;;;;;;;23.98;11.18;;;21.90;99.90;;;;;;4995027;28;20058;-86
2021/07/13 10:47:32;;;;;;;22.23;10.50;;;21.50;99.90;;;;;;5009467;28;20057;-86
2021/07/13 10:50:16;;;;;;;18.25;10.07;;;22.00;99.90;;;;;;5022607;28;20060;-85
2021/07/13 10:53:41;;;;;;;20.70;10.93;;;22.20;99.90;;;;;;4977790;28;20053;-85
2021/07/13 10:56:29;;;;;;;21.85;11.32;;;22.30;99.90;;;;;;4915245;29;20099;-85
2021/07/13 10:58:57;;;;;;;22.35;12.75;;;22.30;99.90;;;;;;5006738;28;20056;-85
2021/07/13 11:01:33;;;;;;;22.42;12.85;;;22.50;99.90;;;;;;4994830;28;20042;-85
2021/07/13 11:04:08;;;;;;;26.55;12.80;;;22.50;99.90;;;;;;4995849;28;20045;-86
2021/07/13 11:06:55;;;;;;;24.33;12.98;;;22.60;99.90;;;;;;5012048;28;20060;-85
2021/07/13 11:09:28;;;;;;;24.58;12.00;;;22.70;99.90;;;;;;5030298;28;20052;-85
2021/07/13 11:12:09;;;;;;;18.77;9.90;;;22.80;99.90;;;;;;5013657;28;20073;-85
2021/07/13 11:15:09;;;;;;;21.27;10.93;;;22.80;99.90;;;;;;5006521;28;20061;-85
2021/07/13 11:17:40;;;;;;;23.20;10.27;;;22.80;99.90;;;;;;5005535;28;20096;-85
2021/07/13 11:20:17;;;;;;;23.15;10.07;;;22.90;99.90;;;;;;5010424;28;20053;-85
2021/07/13 11:22:46;;;;;;;20.20;9.93;;;22.90;99.90;;;;;;5009479;28;20054;-86
2021/07/13 11:25:24;;;;;;;24.20;10.02;;;23.00;99.90;;;;;;5010569;28;20048;-86
2021/07/13 11:28:07;;;;;;;23.52;12.48;;;23.30;99.90;;;;;;5017783;28;20060;-87
2021/07/13 11:36:30;;;;;;;19.77;8.55;;;23.50;99.90;;;;;;4981234;22;20041;-88
2021/07/13 11:39:02;;;;;;;20.88;9.90;;;23.60;99.90;;;;;;4981689;28;20598;-87
2021/07/13 11:41:33;;;;;;;14.85;6.63;;;23.50;99.90;;;;;;5000064;28;20051;-87
2021/07/13 11:44:08;;;;;;;12.13;6.22;;;23.50;99.90;;;;;;4980665;28;20058;-87
2021/07/13 11:46:46;;;;;;;9.52;5.45;;;23.40;99.90;;;;;;5008555;28;20060;-87
2021/07/13 11:49:29;;;;;;;13.18;6.65;;;23.40;99.90;;;;;;5005105;28;20038;-87
2021/07/13 11:52:06;;;;;;;16.83;6.88;;;23.50;99.90;;;;;;4989758;28;20514;-86
2021/07/13 11:54:48;;;;;;;15.25;7.20;;;23.60;99.90;;;;;;4987651;28;20045;-87
2021/07/13 11:57:22;;;;;;;13.38;5.80;;;23.70;99.90;;;;;;4985143;28;20492;-88
2021/07/13 11:59:52;;;;;;;14.80;7.32;;;24.30;99.90;;;;;;4985091;28;20054;-88
2021/07/13 12:02:21;;;;;;;15.40;7.47;;;23.80;99.90;;;;;;4991905;28;20061;-89
2021/07/13 12:04:52;;;;;;;18.77;7.13;;;23.80;99.90;;;;;;4989765;28;20045;-88
2021/07/13 12:07:24;;;;;;;13.88;6.25;;;23.90;99.90;;;;;;5003539;28;20064;-88
2021/07/13 12:10:05;;;;;;;13.27;6.22;;;24.00;99.90;;;;;;4997831;28;20048;-87
2021/07/13 12:12:34;;;;;;;12.00;6.57;;;24.30;99.90;;;;;;4992373;28;20065;-89
2021/07/13 12:15:08;;;;;;;12.38;7.03;;;24.40;99.90;;;;;;4971252;28;20042;-87
2021/07/13 12:17:39;;;;;;;15.05;7.47;;;24.60;99.90;;;;;;4990394;28;20060;-88
2021/07/13 12:20:10;;;;;;;15.07;7.03;;;24.70;99.90;;;;;;4973408;28;20053;-88
2021/07/13 12:22:39;;;;;;;10.13;4.97;;;24.70;99.90;;;;;;5006156;28;20294;-88
2021/07/13 12:25:11;;;;;;;12.50;6.28;;;24.70;99.90;;;;;;5022921;28;20056;-87
2021/07/13 12:27:40;;;;;;;16.45;6.22;;;24.70;99.90;;;;;;4970789;28;20054;-88
2021/07/13 12:30:14;;;;;;;7.10;4.45;;;24.70;99.90;;;;;;4998087;28;20045;-89
2021/07/13 12:33:11;;;;;;;9.85;4.55;;;24.80;99.90;;;;;;5026576;28;20053;-85
2021/07/13 12:35:43;;;;;;;6.70;4.05;;;25.00;98.90;;;;;;5006670;28;20056;-89
2021/07/13 12:38:20;;;;;;;7.65;4.47;;;25.00;99.40;;;;;;4966016;28;20031;-90
2021/07/13 12:40:56;;;;;;;10.77;4.30;;;25.00;99.20;;;;;;4965563;28;20057;-89
2021/07/13 12:43:26;;;;;;;9.75;3.90;;;24.90;99.40;;;;;;4983010;28;20540;-87
2021/07/13 12:45:56;;;;;;;8.48;4.72;;;24.90;99.20;;;;;;4968300;28;20061;-88
2021/07/13 12:48:32;;;;;;;9.45;4.65;;;24.80;99.10;;;;;;4983981;28;20038;-87
2021/07/13 12:51:02;;;;;;;10.20;5.13;;;24.80;98.90;;;;;;4984188;28;20058;-87
2021/07/13 12:53:37;;;;;;;12.85;5.47;;;25.00;98.70;;;;;;4983688;28;20048;-87
2021/07/13 12:56:09;;;;;;;9.93;4.55;;;24.80;98.80;;;;;;4985953;28;20038;-89
2021/07/13 12:58:48;;;;;;;6.45;3.42;;;24.70;98.80;;;;;;4984447;28;20053;-88
2021/07/13 13:01:25;;;;;;;8.60;3.72;;;24.50;98.90;;;;;;4968962;28;20078;-88
2021/07/13 13:04:16;;;;;;;11.95;3.67;;;24.30;98.70;;;;;;4958337;28;20050;-88
2021/07/13 13:06:44;;;;;;;8.07;3.30;;;24.20;98.40;;;;;;4977779;28;20065;-87
2021/07/13 13:09:16;;;;;;;5.40;3.35;;;24.10;99.00;;;;;;4999626;28;20065;-87
2021/07/13 13:11:48;;;;;;;10.10;4.03;;;24.00;99.30;;;;;;4976633;28;20047;-87
2021/07/13 13:14:18;;;;;;;7.47;4.38;;;23.90;99.60;;;;;;4979652;28;20417;-87
2021/07/13 13:16:50;;;;;;;9.45;4.15;;;23.80;99.70;;;;;;4969567;28;20038;-90
2021/07/13 13:19:32;;;;;;;8.40;4.57;;;23.80;99.90;;;;;;4972547;28;20054;-88
2021/07/13 13:22:02;;;;;;;7.00;3.55;;;23.60;99.90;;;;;;4970392;28;20058;-88
2021/07/13 13:24:35;;;;;;;7.35;4.15;;;23.50;99.90;;;;;;5001119;28;20050;-88
2021/07/13 13:27:04;;;;;;;14.50;4.60;;;23.50;99.90;;;;;;4982439;28;20367;-87
2021/07/13 13:29:39;;;;;;;9.15;4.40;;;23.60;99.90;;;;;;4970317;28;20061;-91